createdAt,value
2022-08-17T00:00:34.492Z,6.17
2022-08-17T00:03:04.971Z,5.40
2022-08-17T00:05:34.024Z,5.80
2022-08-17T00:08:01.945Z,6.23
2022-08-17T00:10:29.944Z,6.67
2022-08-17T00:13:05.657Z,7.10
2022-08-17T00:15:33.676Z,7.97
2022-08-17T00:18:01.683Z,6.53
2022-08-17T00:20:30.502Z,7.00
2022-08-17T00:23:07.002Z,6.20
2022-08-17T00:25:35.180Z,5.83
2022-08-17T00:28:04.537Z,5.90
2022-08-17T00:30:51.190Z,5.73
2022-08-17T00:33:21.336Z,8.40
2022-08-17T00:35:49.516Z,7.73
2022-08-17T00:38:17.472Z,10.90
2022-08-17T00:40:46.696Z,8.87
2022-08-17T00:43:18.445Z,9.00
2022-08-17T00:45:46.523Z,7.53
2022-08-17T00:48:29.990Z,12.73
2022-08-17T00:51:02.498Z,10.47
2022-08-17T00:53:31.085Z,10.90
2022-08-17T00:55:59.156Z,9.07
2022-08-17T00:58:28.707Z,11.93
2022-08-17T01:01:05.173Z,12.53
2022-08-17T01:03:33.273Z,7.90
2022-08-17T01:06:01.724Z,12.10
2022-08-17T01:08:30.932Z,7.67
2022-08-17T01:11:01.967Z,11.13
2022-08-17T01:13:38.190Z,11.30
2022-08-17T01:16:11.138Z,9.80
2022-08-17T01:18:39.091Z,7.83
2022-08-17T01:21:11.527Z,10.03
2022-08-17T01:23:42.166Z,9.47
2022-08-17T01:26:10.128Z,6.93
2022-08-17T01:28:53.820Z,8.90
2022-08-17T01:31:24.575Z,6.70
2022-08-17T01:33:52.562Z,12.60
2022-08-17T01:36:20.604Z,5.60
2022-08-17T01:38:49.891Z,7.13
2022-08-17T01:41:18.160Z,8.67
2022-08-17T01:43:47.161Z,8.43
2022-08-17T01:46:16.668Z,8.60
2022-08-17T01:48:47.382Z,7.00
2022-08-17T01:51:15.901Z,6.13
2022-08-17T01:53:46.194Z,4.50
2022-08-17T01:56:17.241Z,7.00
2022-08-17T01:58:45.676Z,4.80
2022-08-17T02:01:14.826Z,4.67
2022-08-17T02:03:59.219Z,6.27
2022-08-17T02:06:29.396Z,7.53
2022-08-17T02:09:03.271Z,4.73
2022-08-17T02:11:33.700Z,5.03
2022-08-17T02:14:02.780Z,6.40
2022-08-17T02:16:36.714Z,4.47
2022-08-17T02:19:06.360Z,9.33
2022-08-17T02:21:34.290Z,3.40
2022-08-17T02:24:02.244Z,4.03
2022-08-17T02:26:30.262Z,8.07
2022-08-17T02:28:59.631Z,4.57
2022-08-17T02:31:27.540Z,3.87
2022-08-17T02:34:03.984Z,2.87
2022-08-17T02:36:33.249Z,4.13
2022-08-17T02:39:01.652Z,4.47
2022-08-17T02:41:29.718Z,4.40
2022-08-17T02:43:59.005Z,4.90
2022-08-17T02:46:27.032Z,4.90
2022-08-17T02:48:55.016Z,6.33
2022-08-17T02:51:22.972Z,3.83
2022-08-17T02:53:50.909Z,5.87
2022-08-17T02:56:18.887Z,4.00
2022-08-17T02:58:47.116Z,6.17
2022-08-17T03:01:16.508Z,5.10
2022-08-17T03:03:44.522Z,4.80
2022-08-17T03:06:12.640Z,5.30
2022-08-17T03:08:40.616Z,4.77
2022-08-17T03:11:08.607Z,5.77
2022-08-17T03:13:36.559Z,4.10
2022-08-17T03:16:04.867Z,2.30
2022-08-17T03:18:34.170Z,5.63
2022-08-17T03:21:04.219Z,2.73
2022-08-17T03:23:32.685Z,5.23
2022-08-17T03:26:01.050Z,3.10
2022-08-17T03:28:30.124Z,6.07
2022-08-17T03:30:58.459Z,3.77
2022-08-17T03:33:26.414Z,21.23
2022-08-17T03:35:55.662Z,2.73
2022-08-17T03:38:23.627Z,3.30
2022-08-17T03:40:58.203Z,2.67
2022-08-17T03:43:27.897Z,2.53
2022-08-17T03:46:28.122Z,3.53
2022-08-17T03:49:19.957Z,2.40
2022-08-17T03:52:06.734Z,3.83
2022-08-17T03:54:52.281Z,2.80
2022-08-17T03:57:20.339Z,4.80
2022-08-17T03:59:48.320Z,4.37
2022-08-17T04:02:19.900Z,4.87
2022-08-17T04:04:50.817Z,3.90
2022-08-17T04:07:20.803Z,6.23
2022-08-17T04:09:48.763Z,8.37
2022-08-17T04:12:16.950Z,6.50
2022-08-17T04:14:52.323Z,7.87
2022-08-17T04:17:23.301Z,6.77
2022-08-17T04:19:51.243Z,5.70
2022-08-17T04:22:31.204Z,7.97
2022-08-17T04:25:09.558Z,8.87
2022-08-17T04:27:37.675Z,6.63
2022-08-17T04:30:07.012Z,10.00
2022-08-17T04:36:30.242Z,16.97
2022-08-17T04:39:08.446Z,5.30
2022-08-17T04:41:53.634Z,5.90
2022-08-17T04:44:37.095Z,7.63
2022-08-17T04:47:07.205Z,11.43
2022-08-17T04:49:41.176Z,6.83
2022-08-17T04:52:09.172Z,4.53
2022-08-17T04:54:58.504Z,5.43
2022-08-17T04:57:26.499Z,7.97
2022-08-17T04:59:54.461Z,5.03
2022-08-17T05:02:22.436Z,4.97
2022-08-17T05:04:50.392Z,3.03
2022-08-17T05:07:23.092Z,3.20
2022-08-17T05:09:51.942Z,3.20
2022-08-17T05:12:21.254Z,3.00
2022-08-17T05:14:49.216Z,5.57
2022-08-17T05:17:17.189Z,4.37
2022-08-17T05:19:50.004Z,6.47
2022-08-17T05:22:19.748Z,4.50
2022-08-17T05:24:53.732Z,4.53
2022-08-17T05:27:24.944Z,4.13
2022-08-17T05:29:57.776Z,4.13
2022-08-17T05:32:38.702Z,3.23
2022-08-17T05:35:08.593Z,2.63
2022-08-17T05:37:36.600Z,4.27
2022-08-17T05:40:05.396Z,7.87
2022-08-17T05:42:35.240Z,6.57
2022-08-17T05:45:05.586Z,4.50
2022-08-17T05:47:33.566Z,4.80
2022-08-17T05:50:02.030Z,5.07
2022-08-17T05:52:33.843Z,4.23
2022-08-17T05:55:13.350Z,5.40
2022-08-17T05:57:53.770Z,5.87
2022-08-17T06:00:30.311Z,5.70
2022-08-17T06:03:09.417Z,4.87
2022-08-17T06:05:45.438Z,5.57
2022-08-17T06:08:16.388Z,4.90
2022-08-17T06:10:46.527Z,5.07
2022-08-17T06:13:19.831Z,3.57
2022-08-17T06:15:55.716Z,4.63
2022-08-17T06:18:23.854Z,4.43
2022-08-17T06:20:52.991Z,5.40
2022-08-17T06:23:25.105Z,3.90
2022-08-17T06:25:54.832Z,6.43
2022-08-17T06:28:27.084Z,4.30
2022-08-17T06:30:59.958Z,3.50
2022-08-17T06:33:32.214Z,2.57
2022-08-17T06:36:03.007Z,5.47
2022-08-17T06:38:43.007Z,4.63
2022-08-17T06:41:16.607Z,5.57
2022-08-17T06:43:51.834Z,3.07
2022-08-17T06:46:24.253Z,4.70
2022-08-17T06:48:57.431Z,2.43
2022-08-17T06:51:27.654Z,2.53
2022-08-17T06:54:00.136Z,2.67
2022-08-17T06:56:54.855Z,3.77
2022-08-17T06:59:23.564Z,2.70
2022-08-17T07:01:52.126Z,3.87
2022-08-17T07:04:21.404Z,3.10
2022-08-17T07:06:51.604Z,1.87
2022-08-17T07:09:23.235Z,2.57
2022-08-17T07:11:52.733Z,2.27
2022-08-17T07:14:31.856Z,2.83
2022-08-17T07:17:00.517Z,7.23
2022-08-17T07:19:31.510Z,3.60
2022-08-17T07:22:04.676Z,6.93
2022-08-17T07:24:35.663Z,3.30
2022-08-17T07:27:08.779Z,2.47
2022-08-17T07:29:41.744Z,2.73
2022-08-17T07:32:10.251Z,6.93
2022-08-17T07:35:11.185Z,2.07
2022-08-17T07:37:40.136Z,2.93
2022-08-17T07:40:20.626Z,5.13
2022-08-17T07:43:21.954Z,5.13
2022-08-17T07:46:19.101Z,4.27
2022-08-17T07:48:49.645Z,3.30
2022-08-17T07:51:25.191Z,2.87
2022-08-17T07:53:53.949Z,2.63
2022-08-17T07:56:34.655Z,2.57
2022-08-17T07:59:23.351Z,4.63
2022-08-17T08:02:06.159Z,4.83
2022-08-17T08:04:59.361Z,2.77
2022-08-17T08:07:26.770Z,2.80
2022-08-17T08:10:02.577Z,4.97
2022-08-17T08:12:34.348Z,3.40
2022-08-17T08:15:04.837Z,3.90
2022-08-17T08:17:36.528Z,2.63
2022-08-17T08:20:50.835Z,4.67
2022-08-17T08:23:00.487Z,3.20
2022-08-17T08:25:41.348Z,3.70
2022-08-17T08:28:17.900Z,4.27
2022-08-17T08:30:47.813Z,3.07
2022-08-17T08:33:30.487Z,2.93
2022-08-17T08:36:04.230Z,3.37
2022-08-17T08:38:38.304Z,3.47
2022-08-17T08:41:29.985Z,2.17
2022-08-17T08:44:03.725Z,2.67
2022-08-17T08:46:36.463Z,1.83
2022-08-17T08:49:59.050Z,2.47
2022-08-17T08:52:24.127Z,5.87
2022-08-17T08:54:54.830Z,2.60
2022-08-17T08:57:32.812Z,2.70
2022-08-17T09:00:08.763Z,8.63
2022-08-17T09:03:06.273Z,2.00
2022-08-17T09:05:43.461Z,2.40
2022-08-17T09:08:16.483Z,3.20
2022-08-17T09:10:53.325Z,2.50
2022-08-17T09:13:23.224Z,4.33
2022-08-17T09:15:55.021Z,2.23
2022-08-17T09:19:00.067Z,2.13
2022-08-17T09:21:18.246Z,2.43
2022-08-17T09:23:52.093Z,2.87
2022-08-17T09:26:22.862Z,2.73
2022-08-17T09:28:52.279Z,3.23
2022-08-17T09:31:21.451Z,1.70
2022-08-17T09:33:49.753Z,2.13
2022-08-17T09:36:21.760Z,1.73
2022-08-17T09:38:53.824Z,3.50
2022-08-17T09:41:23.200Z,2.40
2022-08-17T09:43:54.598Z,4.97
2022-08-17T09:46:24.995Z,2.80
2022-08-17T09:48:55.613Z,2.73
2022-08-17T09:51:28.785Z,3.63
2022-08-17T09:54:09.455Z,1.53
2022-08-17T09:57:00.792Z,4.50
2022-08-17T09:59:47.307Z,2.23
2022-08-17T10:02:31.697Z,2.60
2022-08-17T10:05:02.912Z,1.50
2022-08-17T10:07:34.220Z,1.47
2022-08-17T10:10:05.144Z,1.43
2022-08-17T10:12:36.905Z,1.63
2022-08-17T10:15:14.904Z,2.90
2022-08-17T10:17:53.986Z,2.27
2022-08-17T10:20:24.523Z,1.87
2022-08-17T10:23:14.452Z,1.57
2022-08-17T10:26:09.589Z,2.53
2022-08-17T10:28:40.393Z,2.93
2022-08-17T10:34:21.845Z,2.37
2022-08-17T10:36:54.684Z,3.07
2022-08-17T10:39:28.658Z,2.10
2022-08-17T10:41:57.764Z,2.10
2022-08-17T10:44:38.144Z,2.83
2022-08-17T10:47:09.646Z,5.70
2022-08-17T10:49:38.012Z,4.10
2022-08-17T10:52:25.013Z,2.60
2022-08-17T10:55:13.388Z,2.30
2022-08-17T10:57:43.333Z,3.10
2022-08-17T11:00:17.195Z,5.47
2022-08-17T11:02:50.891Z,3.87
2022-08-17T11:05:48.811Z,2.57
2022-08-17T11:08:47.875Z,2.80
2022-08-17T11:11:26.668Z,3.30
2022-08-17T11:14:01.561Z,2.77
2022-08-17T11:16:38.996Z,2.83
2022-08-17T11:19:19.696Z,4.50
2022-08-17T11:22:08.066Z,2.97
2022-08-17T11:24:36.190Z,3.27
2022-08-17T11:27:09.183Z,4.80
2022-08-17T11:29:52.374Z,4.10
2022-08-17T11:32:38.156Z,4.10
2022-08-17T11:35:35.761Z,2.83
2022-08-17T11:38:16.238Z,3.40
2022-08-17T11:41:02.104Z,4.10
2022-08-17T11:43:55.196Z,3.67
2022-08-17T11:46:51.682Z,3.73
2022-08-17T11:49:54.490Z,2.83
2022-08-17T11:52:39.926Z,3.70
2022-08-17T11:55:33.999Z,2.37
2022-08-17T11:58:00.960Z,4.67
2022-08-17T12:00:54.712Z,2.47
2022-08-17T12:03:53.985Z,3.00
2022-08-17T12:06:43.523Z,3.00
2022-08-17T12:09:15.718Z,3.23
2022-08-17T12:11:58.598Z,3.73
2022-08-17T12:15:08.332Z,3.00
2022-08-17T12:17:40.658Z,4.47
2022-08-17T12:20:14.643Z,3.40
2022-08-17T12:22:46.688Z,2.97
2022-08-17T12:25:17.898Z,3.57
2022-08-17T12:28:05.057Z,2.93
2022-08-17T12:30:35.403Z,2.80
2022-08-17T12:33:05.077Z,3.97
2022-08-17T12:35:36.375Z,2.73
2022-08-17T12:38:07.383Z,3.23
2022-08-17T12:40:55.645Z,4.17
2022-08-17T12:43:27.737Z,4.40
2022-08-17T12:45:57.900Z,3.80
2022-08-17T12:48:28.188Z,4.37
2022-08-17T12:51:00.335Z,3.23
2022-08-17T12:53:29.890Z,3.23
2022-08-17T12:55:57.961Z,3.87
2022-08-17T12:58:27.581Z,5.43
2022-08-17T13:00:59.439Z,3.73
2022-08-17T13:03:36.377Z,3.43
2022-08-17T13:06:06.490Z,5.73
2022-08-17T13:08:36.044Z,2.43
2022-08-17T13:11:05.376Z,3.50
2022-08-17T13:13:34.697Z,4.13
2022-08-17T13:16:03.585Z,4.67
2022-08-17T13:18:41.369Z,3.17
2022-08-17T13:21:19.194Z,4.97
2022-08-17T13:23:58.642Z,7.80
2022-08-17T13:26:29.417Z,5.00
2022-08-17T13:28:57.390Z,4.17
2022-08-17T13:31:39.449Z,3.50
2022-08-17T13:34:35.799Z,2.80
2022-08-17T13:37:33.134Z,2.30
2022-08-17T13:40:03.154Z,4.33
2022-08-17T13:42:51.700Z,3.60
2022-08-17T13:45:40.435Z,5.30
2022-08-17T13:48:14.451Z,2.80
2022-08-17T13:50:45.289Z,2.20
2022-08-17T13:53:18.027Z,4.63
2022-08-17T13:55:49.135Z,5.93
2022-08-17T13:58:24.424Z,2.77
2022-08-17T14:00:52.783Z,5.03
2022-08-17T14:03:20.981Z,2.57
2022-08-17T14:05:50.676Z,3.30
2022-08-17T14:08:19.425Z,4.47
2022-08-17T14:10:47.750Z,4.67
2022-08-17T14:13:15.695Z,3.33
2022-08-17T14:15:55.938Z,3.83
2022-08-17T14:18:50.549Z,5.37
2022-08-17T14:21:14.466Z,3.70
2022-08-17T14:23:49.963Z,4.37
2022-08-17T14:26:23.207Z,3.47
2022-08-17T14:28:56.344Z,4.10
2022-08-17T14:31:25.926Z,3.77
2022-08-17T14:33:54.076Z,3.70
2022-08-17T14:36:23.514Z,5.20
2022-08-17T14:38:51.518Z,4.97
2022-08-17T14:41:22.204Z,4.63
2022-08-17T14:43:52.874Z,4.67
2022-08-17T14:46:22.641Z,4.83
2022-08-17T14:48:57.154Z,5.30
2022-08-17T14:51:28.514Z,3.57
2022-08-17T14:53:57.180Z,5.47
2022-08-17T14:56:25.309Z,3.87
2022-08-17T14:58:53.298Z,4.77
2022-08-17T15:01:21.424Z,4.50
2022-08-17T15:03:49.490Z,4.77
2022-08-17T15:06:17.628Z,4.93
2022-08-17T15:08:46.978Z,4.27
2022-08-17T15:11:15.054Z,4.13
2022-08-17T15:13:52.730Z,5.50
2022-08-17T15:16:22.614Z,4.33
2022-08-17T15:18:52.672Z,4.90
2022-08-17T15:21:22.856Z,3.30
2022-08-17T15:23:52.205Z,3.83
2022-08-17T15:26:25.603Z,4.40
2022-08-17T15:28:56.012Z,3.60
2022-08-17T15:31:31.736Z,4.00
2022-08-17T15:34:00.408Z,4.17
2022-08-17T15:36:29.489Z,3.43
2022-08-17T15:38:58.984Z,5.47
2022-08-17T15:41:28.084Z,4.20
2022-08-17T15:43:56.090Z,3.90
2022-08-17T15:46:25.602Z,3.17
2022-08-17T15:48:55.005Z,4.80
2022-08-17T15:51:24.400Z,2.87
2022-08-17T15:53:54.492Z,3.40
2022-08-17T15:56:26.141Z,5.83
2022-08-17T15:58:55.090Z,4.20
2022-08-17T16:02:07.755Z,3.57
2022-08-17T16:04:26.958Z,5.43
2022-08-17T16:06:59.089Z,5.43
2022-08-17T16:09:27.219Z,2.33
2022-08-17T16:11:56.769Z,5.50
2022-08-17T16:14:30.338Z,3.40
2022-08-17T16:17:01.983Z,3.23
2022-08-17T16:19:29.944Z,3.60
2022-08-17T16:21:57.890Z,2.43
2022-08-17T16:24:25.858Z,3.50
2022-08-17T16:26:55.357Z,3.33
2022-08-17T16:29:24.678Z,3.30
2022-08-17T16:31:53.414Z,2.23
2022-08-17T16:34:21.740Z,4.37
2022-08-17T16:36:54.648Z,3.50
2022-08-17T16:39:23.881Z,5.03
2022-08-17T16:41:51.820Z,3.87
2022-08-17T16:44:21.074Z,4.13
2022-08-17T16:46:50.733Z,3.87
2022-08-17T16:49:36.355Z,3.70
2022-08-17T16:52:06.749Z,6.63
2022-08-17T16:54:35.381Z,4.93
2022-08-17T16:57:05.234Z,3.83
2022-08-17T16:59:41.082Z,4.03
2022-08-17T17:02:16.059Z,5.60
2022-08-17T17:04:47.486Z,5.53
2022-08-17T17:07:35.077Z,5.10
2022-08-17T17:10:06.202Z,5.63
2022-08-17T17:13:03.235Z,4.53
2022-08-17T17:15:22.447Z,3.90
2022-08-17T17:17:52.110Z,6.40
2022-08-17T17:20:23.336Z,5.63
2022-08-17T17:22:55.822Z,6.47
2022-08-17T17:25:26.862Z,3.57
2022-08-17T17:28:01.039Z,5.27
2022-08-17T17:30:33.112Z,4.00
2022-08-17T17:33:07.693Z,4.00
2022-08-17T17:35:36.862Z,4.73
2022-08-17T17:38:05.928Z,3.93
2022-08-17T17:40:36.634Z,5.13
2022-08-17T17:43:34.667Z,3.97
2022-08-17T17:45:56.412Z,3.30
2022-08-17T17:48:28.960Z,2.40
2022-08-17T17:51:05.389Z,2.90
2022-08-17T17:53:42.999Z,5.63
2022-08-17T17:56:34.303Z,5.13
2022-08-17T17:59:05.063Z,3.17
2022-08-17T18:01:45.795Z,4.57
2022-08-17T18:04:21.487Z,3.60
2022-08-17T18:07:02.829Z,2.67
2022-08-17T18:09:40.769Z,3.00
2022-08-17T18:12:13.621Z,4.53
2022-08-17T18:14:58.269Z,3.30
2022-08-17T18:17:27.414Z,2.33
2022-08-17T18:19:56.709Z,3.23
2022-08-17T18:22:24.826Z,6.03
2022-08-17T18:24:55.888Z,4.33
2022-08-17T18:27:27.387Z,7.47
2022-08-17T18:29:55.848Z,11.03
2022-08-17T18:32:27.136Z,17.30
2022-08-17T18:34:57.920Z,16.30
2022-08-17T18:37:34.564Z,16.30
2022-08-17T18:40:24.397Z,19.00
2022-08-17T18:42:59.216Z,17.47
2022-08-17T18:45:33.256Z,23.40
2022-08-17T18:48:01.425Z,19.07
2022-08-17T18:50:39.479Z,18.43
2022-08-17T18:53:30.336Z,20.13
2022-08-17T18:56:25.676Z,20.70
2022-08-17T18:58:59.619Z,18.27
2022-08-17T19:01:41.757Z,20.17
2022-08-17T19:04:32.780Z,15.90
2022-08-17T19:07:12.988Z,20.13
2022-08-17T19:09:43.661Z,24.97
2022-08-17T19:12:15.339Z,19.97
2022-08-17T19:14:43.483Z,27.37
2022-08-17T19:17:12.751Z,26.07
2022-08-17T19:19:43.495Z,33.67
2022-08-17T19:22:14.429Z,26.47
2022-08-17T19:25:02.629Z,23.00
2022-08-17T19:27:41.852Z,22.83
2022-08-17T19:30:13.537Z,26.90
2022-08-17T19:32:41.746Z,21.50
2022-08-17T19:35:15.133Z,23.67
2022-08-17T19:37:52.867Z,19.10
2022-08-17T19:40:51.087Z,17.53
2022-08-17T19:43:15.784Z,20.43
2022-08-17T19:45:49.737Z,16.83
2022-08-17T19:48:23.916Z,17.27
2022-08-17T19:50:55.345Z,16.07
2022-08-17T19:53:54.122Z,15.03
2022-08-17T19:56:22.365Z,18.37
2022-08-17T19:58:56.853Z,17.50
2022-08-17T20:01:34.514Z,18.07
2022-08-17T20:04:07.601Z,16.17
2022-08-17T20:06:36.891Z,14.40
2022-08-17T20:09:14.944Z,15.43
2022-08-17T20:11:46.009Z,20.13
2022-08-17T20:14:15.674Z,20.53
2022-08-17T20:16:43.694Z,21.73
2022-08-17T20:19:18.040Z,16.73
2022-08-17T20:21:54.102Z,15.90
2022-08-17T20:24:29.245Z,19.27
2022-08-17T20:26:59.728Z,17.73
2022-08-17T20:29:39.612Z,18.57
2022-08-17T20:32:22.674Z,21.67
2022-08-17T20:34:52.442Z,16.53
2022-08-17T20:37:29.550Z,14.43
2022-08-17T20:40:18.933Z,11.90
2022-08-17T20:42:46.944Z,17.20
2022-08-17T20:45:48.288Z,14.63
2022-08-17T20:48:36.977Z,12.10
2022-08-17T20:51:17.065Z,12.13
2022-08-17T20:54:06.601Z,11.87
2022-08-17T20:56:57.462Z,10.10
2022-08-17T20:59:57.520Z,11.90
2022-08-17T21:02:26.848Z,9.27
2022-08-17T21:05:32.350Z,9.43
2022-08-17T21:08:13.901Z,11.07
2022-08-17T21:10:41.885Z,8.97
2022-08-17T21:13:41.876Z,10.00
2022-08-17T21:16:24.801Z,9.27
2022-08-17T21:18:56.308Z,9.60
2022-08-17T21:21:27.049Z,6.37
2022-08-17T21:24:16.922Z,6.67
2022-08-17T21:26:51.098Z,8.23
2022-08-17T21:29:30.905Z,11.23
2022-08-17T21:32:24.312Z,10.97
2022-08-17T21:35:30.081Z,9.80
2022-08-17T21:38:03.607Z,7.87
2022-08-17T21:40:32.320Z,6.73
2022-08-17T21:43:01.493Z,7.50
2022-08-17T21:45:32.012Z,6.40
2022-08-17T21:48:14.185Z,5.37
2022-08-17T21:50:44.252Z,7.03
2022-08-17T21:53:14.619Z,5.33
2022-08-17T21:55:42.572Z,4.23
2022-08-17T21:58:29.925Z,4.53
2022-08-17T22:01:20.830Z,3.27
2022-08-17T22:03:55.579Z,3.27
2022-08-17T22:06:25.358Z,3.70
2022-08-17T22:09:07.957Z,6.23
2022-08-17T22:11:52.425Z,3.97
2022-08-17T22:14:22.331Z,4.60
2022-08-17T22:17:06.460Z,3.30
2022-08-17T22:19:34.948Z,4.33
2022-08-17T22:22:07.317Z,4.03
2022-08-17T22:24:36.780Z,4.13
2022-08-17T22:27:07.998Z,5.03
2022-08-17T22:29:57.616Z,5.97
2022-08-17T22:32:38.868Z,3.80
2022-08-17T22:35:26.295Z,5.87
2022-08-17T22:37:54.264Z,3.63
2022-08-17T22:40:26.484Z,3.10
2022-08-17T22:42:54.459Z,5.40
2022-08-17T22:45:23.857Z,4.97
2022-08-17T22:47:55.645Z,3.53
2022-08-17T22:50:24.461Z,2.63
2022-08-17T22:53:17.375Z,3.33
2022-08-17T22:56:08.798Z,2.77
2022-08-17T22:58:58.749Z,3.23
2022-08-17T23:01:29.192Z,2.17
2022-08-17T23:03:59.520Z,2.83
2022-08-17T23:06:27.474Z,2.80
2022-08-17T23:08:56.584Z,1.90
2022-08-17T23:11:36.944Z,3.50
2022-08-17T23:14:14.512Z,1.73
2022-08-17T23:16:43.521Z,1.57
2022-08-17T23:19:13.645Z,2.10
2022-08-17T23:21:41.634Z,2.90
2022-08-17T23:24:10.590Z,2.03
2022-08-17T23:26:40.760Z,1.87
2022-08-17T23:29:09.408Z,2.53
2022-08-17T23:31:38.577Z,1.87
2022-08-17T23:34:09.037Z,3.07
2022-08-17T23:36:38.558Z,1.73
2022-08-17T23:39:06.699Z,2.10
2022-08-17T23:41:36.449Z,2.73
2022-08-17T23:44:08.679Z,2.67
2022-08-17T23:46:36.650Z,3.13
2022-08-17T23:49:04.633Z,1.53
2022-08-17T23:51:34.642Z,3.07
2022-08-17T23:54:08.380Z,1.33
2022-08-17T23:56:41.896Z,1.60
2022-08-17T23:59:09.992Z,2.97
